createdAt,value
2018-01-20T00:01:16.458Z,23.40
2018-01-20T00:03:43.899Z,25.37
2018-01-20T00:06:11.290Z,25.90
2018-01-20T00:08:38.698Z,26.80
2018-01-20T00:11:18.061Z,26.70
2018-01-20T00:13:45.482Z,26.90
2018-01-20T00:16:12.871Z,27.57
2018-01-20T00:18:40.275Z,26.70
2018-01-20T00:21:07.678Z,26.70
2018-01-20T00:23:35.071Z,25.93
2018-01-20T00:26:08.190Z,25.73
2018-01-20T00:28:35.638Z,24.90
2018-01-20T00:31:03.035Z,24.70
2018-01-20T00:33:30.443Z,24.87
2018-01-20T00:35:57.829Z,23.63
2018-01-20T00:38:25.236Z,26.27
2018-01-20T00:40:52.654Z,24.37
2018-01-20T00:43:20.047Z,27.10
2018-01-20T00:45:47.434Z,24.17
2018-01-20T00:48:14.823Z,25.87
2018-01-20T00:50:42.245Z,26.10
2018-01-20T00:53:09.636Z,23.17
2018-01-20T00:55:37.071Z,24.40
2018-01-20T00:58:04.465Z,24.60
2018-01-20T01:00:31.869Z,24.63
2018-01-20T01:02:59.959Z,23.30
2018-01-20T01:05:27.373Z,24.60
2018-01-20T01:07:54.773Z,26.20
2018-01-20T01:10:22.175Z,26.83
2018-01-20T01:12:49.694Z,25.40
2018-01-20T01:15:17.088Z,26.50
2018-01-20T01:17:44.494Z,25.73
2018-01-20T01:20:11.888Z,28.20
2018-01-20T01:22:39.303Z,25.13
2018-01-20T01:25:06.708Z,27.23
2018-01-20T01:27:34.102Z,27.40
2018-01-20T01:30:01.521Z,25.57
2018-01-20T01:32:28.909Z,27.60
2018-01-20T01:34:56.301Z,26.77
2018-01-20T01:37:23.710Z,26.27
2018-01-20T01:39:51.111Z,27.53
2018-01-20T01:42:18.528Z,24.00
2018-01-20T01:44:45.926Z,26.70
2018-01-20T01:47:13.333Z,25.70
2018-01-20T01:49:40.749Z,26.10
2018-01-20T01:52:08.133Z,26.43
2018-01-20T01:54:35.605Z,24.63
2018-01-20T01:57:02.995Z,26.83
2018-01-20T01:59:30.398Z,26.87
2018-01-20T02:01:57.803Z,24.20
2018-01-20T02:04:25.209Z,24.10
2018-01-20T02:06:52.595Z,27.90
2018-01-20T02:09:19.998Z,25.80
2018-01-20T02:11:47.406Z,26.60
2018-01-20T02:14:14.818Z,27.63
2018-01-20T02:16:42.222Z,29.47
2018-01-20T02:19:09.622Z,26.77
2018-01-20T02:21:37.046Z,26.63
2018-01-20T02:24:04.450Z,28.47
2018-01-20T02:26:31.838Z,28.80
2018-01-20T02:28:59.231Z,27.30
2018-01-20T02:31:26.652Z,27.00
2018-01-20T02:33:54.282Z,27.10
2018-01-20T02:36:21.672Z,27.53
2018-01-20T02:38:49.066Z,28.20
2018-01-20T02:41:16.470Z,28.60
2018-01-20T02:43:43.935Z,28.20
2018-01-20T02:46:11.334Z,27.67
2018-01-20T02:48:38.738Z,30.90
2018-01-20T02:51:06.126Z,28.67
2018-01-20T02:53:33.515Z,28.50
2018-01-20T02:56:00.910Z,26.63
2018-01-20T02:58:28.304Z,29.80
2018-01-20T03:00:56.486Z,29.57
2018-01-20T03:03:23.980Z,27.83
2018-01-20T03:05:51.373Z,28.10
2018-01-20T03:08:18.779Z,30.93
2018-01-20T03:10:46.178Z,29.07
2018-01-20T03:13:13.561Z,28.40
2018-01-20T03:15:40.961Z,28.80
2018-01-20T03:18:08.350Z,29.53
2018-01-20T03:20:35.759Z,30.80
2018-01-20T03:23:03.214Z,31.50
2018-01-20T03:25:30.647Z,31.70
2018-01-20T03:27:58.051Z,30.53
2018-01-20T03:30:25.442Z,31.47
2018-01-20T03:32:52.862Z,32.13
2018-01-20T03:35:20.270Z,30.20
2018-01-20T03:37:47.654Z,32.67
2018-01-20T03:40:15.083Z,31.83
2018-01-20T03:42:42.499Z,30.10
2018-01-20T03:45:09.927Z,31.20
2018-01-20T03:47:37.324Z,31.83
2018-01-20T03:50:04.750Z,31.47
2018-01-20T03:52:32.159Z,31.70
2018-01-20T03:54:59.559Z,32.70
2018-01-20T03:57:26.943Z,31.13
2018-01-20T03:59:54.352Z,33.27
2018-01-20T04:02:21.759Z,31.67
2018-01-20T04:04:49.161Z,30.37
2018-01-20T04:07:16.546Z,32.37
2018-01-20T04:09:43.942Z,29.50
2018-01-20T04:12:11.331Z,29.57
2018-01-20T04:14:38.740Z,30.43
2018-01-20T04:17:06.144Z,31.93
2018-01-20T04:19:33.543Z,30.80
2018-01-20T04:22:00.934Z,29.67
2018-01-20T04:24:28.324Z,27.33
2018-01-20T04:26:55.713Z,29.13
2018-01-20T04:29:23.094Z,28.43
2018-01-20T04:31:50.498Z,29.40
2018-01-20T04:34:17.911Z,30.40
2018-01-20T04:36:45.310Z,29.27
2018-01-20T04:39:12.726Z,31.00
2018-01-20T04:41:40.162Z,31.23
2018-01-20T04:44:07.586Z,30.57
2018-01-20T04:46:34.977Z,29.17
2018-01-20T04:49:02.362Z,32.07
2018-01-20T04:51:29.763Z,31.57
2018-01-20T04:53:57.155Z,29.70
2018-01-20T04:56:24.571Z,35.03
2018-01-20T04:58:52.068Z,32.07
2018-01-20T05:01:19.475Z,31.33
2018-01-20T05:03:46.976Z,30.47
2018-01-20T05:06:14.391Z,31.70
2018-01-20T05:08:41.795Z,31.50
2018-01-20T05:11:09.195Z,29.33
2018-01-20T05:13:36.596Z,31.13
2018-01-20T05:16:03.997Z,30.57
2018-01-20T05:18:31.406Z,31.50
2018-01-20T05:20:58.826Z,30.10
2018-01-20T05:23:26.220Z,30.10
2018-01-20T05:25:53.643Z,30.87
2018-01-20T05:28:21.031Z,29.73
2018-01-20T05:30:48.456Z,30.00
2018-01-20T05:33:15.842Z,31.10
2018-01-20T05:35:43.234Z,28.13
2018-01-20T05:38:10.655Z,29.50
2018-01-20T05:40:38.094Z,29.23
2018-01-20T05:43:05.496Z,30.17
2018-01-20T05:45:32.891Z,28.33
2018-01-20T05:48:00.290Z,30.80
2018-01-20T05:50:27.687Z,29.30
2018-01-20T05:52:55.093Z,28.37
2018-01-20T05:55:22.495Z,30.77
2018-01-20T05:57:49.898Z,30.63
2018-01-20T06:00:17.298Z,28.90
2018-01-20T06:02:44.690Z,29.70
2018-01-20T06:05:12.101Z,28.23
2018-01-20T06:07:39.488Z,29.40
2018-01-20T06:10:06.874Z,28.13
2018-01-20T06:12:34.286Z,29.43
2018-01-20T06:15:01.710Z,28.67
2018-01-20T06:17:29.106Z,28.80
2018-01-20T06:22:25.681Z,30.20
2018-01-20T06:24:53.082Z,29.33
2018-01-20T06:27:20.530Z,28.17
2018-01-20T06:29:47.958Z,31.40
2018-01-20T06:32:15.370Z,27.80
2018-01-20T06:34:42.859Z,28.27
2018-01-20T06:37:10.268Z,27.97
2018-01-20T06:39:37.678Z,26.80
2018-01-20T06:42:05.086Z,26.50
2018-01-20T06:44:32.486Z,27.50
2018-01-20T06:46:59.884Z,27.93
2018-01-20T06:49:27.277Z,28.40
2018-01-20T06:51:54.698Z,25.83
2018-01-20T06:54:22.091Z,26.40
2018-01-20T06:56:49.506Z,25.50
2018-01-20T06:59:16.919Z,25.67
2018-01-20T07:01:44.319Z,23.33
2018-01-20T07:04:11.710Z,26.60
2018-01-20T07:06:39.110Z,25.70
2018-01-20T07:09:06.504Z,23.80
2018-01-20T07:11:33.898Z,19.70
2018-01-20T07:14:01.335Z,23.13
2018-01-20T07:16:28.746Z,21.70
2018-01-20T07:18:56.135Z,21.93
2018-01-20T07:21:23.530Z,21.13
2018-01-20T07:23:50.946Z,22.60
2018-01-20T07:26:18.367Z,23.37
2018-01-20T07:28:45.757Z,21.20
2018-01-20T07:31:13.178Z,21.10
2018-01-20T07:33:40.628Z,22.53
2018-01-20T07:36:08.015Z,21.27
2018-01-20T07:38:35.399Z,20.07
2018-01-20T07:41:02.796Z,20.20
2018-01-20T07:43:30.203Z,21.87
2018-01-20T07:45:57.593Z,20.07
2018-01-20T07:48:25.015Z,19.83
2018-01-20T07:50:52.429Z,17.90
2018-01-20T07:53:19.852Z,17.87
2018-01-20T07:55:47.243Z,19.27
2018-01-20T07:58:14.634Z,19.20
2018-01-20T08:00:42.043Z,18.30
2018-01-20T08:03:09.546Z,19.97
2018-01-20T08:05:36.956Z,20.13
2018-01-20T08:08:04.343Z,19.60
2018-01-20T08:10:31.739Z,19.10
2018-01-20T08:12:59.162Z,19.40
2018-01-20T08:15:26.530Z,18.10
2018-01-20T08:17:53.959Z,19.57
2018-01-20T08:20:22.166Z,18.03
2018-01-20T08:22:49.562Z,19.27
2018-01-20T08:25:16.959Z,17.97
2018-01-20T08:27:44.346Z,18.77
2018-01-20T08:30:11.743Z,18.83
2018-01-20T08:32:39.142Z,18.40
2018-01-20T08:35:06.530Z,17.40
2018-01-20T08:37:33.930Z,20.97
2018-01-20T08:40:01.325Z,18.27
2018-01-20T08:42:28.718Z,19.00
2018-01-20T08:44:56.115Z,19.07
2018-01-20T08:47:24.075Z,17.83
2018-01-20T08:49:51.463Z,17.50
2018-01-20T08:52:18.858Z,17.87
2018-01-20T08:54:46.262Z,17.80
2018-01-20T08:57:13.650Z,17.80
2018-01-20T08:59:41.040Z,17.73
2018-01-20T09:02:08.595Z,18.20
2018-01-20T09:04:35.961Z,17.27
2018-01-20T09:07:03.363Z,18.67
2018-01-20T09:09:30.866Z,18.33
2018-01-20T09:11:58.318Z,17.33
2018-01-20T09:14:25.737Z,17.90
2018-01-20T09:16:53.118Z,17.37
2018-01-20T09:19:20.510Z,19.13
2018-01-20T09:21:47.904Z,18.93
2018-01-20T09:24:15.294Z,19.03
2018-01-20T09:26:42.698Z,18.40
2018-01-20T09:29:10.119Z,18.90
2018-01-20T09:31:37.522Z,19.07
2018-01-20T09:34:04.912Z,17.43
2018-01-20T09:36:32.302Z,19.53
2018-01-20T09:38:59.706Z,18.53
2018-01-20T09:41:27.102Z,19.53
2018-01-20T09:43:55.487Z,19.13
2018-01-20T09:46:22.887Z,18.97
2018-01-20T09:48:50.275Z,17.90
2018-01-20T09:51:17.667Z,19.93
2018-01-20T09:53:45.158Z,20.50
2018-01-20T09:56:12.554Z,21.03
2018-01-20T09:58:39.976Z,22.93
2018-01-20T10:01:07.357Z,22.67
2018-01-20T10:03:34.786Z,20.63
2018-01-20T10:06:02.214Z,20.80
2018-01-20T10:08:29.610Z,22.07
2018-01-20T10:10:56.997Z,21.90
2018-01-20T10:13:24.402Z,19.57
2018-01-20T10:15:51.798Z,21.73
2018-01-20T10:18:19.182Z,20.40
2018-01-20T10:20:46.595Z,22.70
2018-01-20T10:23:14.023Z,23.10
2018-01-20T10:25:41.410Z,20.70
2018-01-20T10:28:08.803Z,23.07
2018-01-20T10:30:36.290Z,22.47
2018-01-20T10:33:03.688Z,22.80
2018-01-20T10:35:31.131Z,20.73
2018-01-20T10:37:58.534Z,22.13
2018-01-20T10:40:25.929Z,24.40
2018-01-20T10:42:53.322Z,23.20
2018-01-20T10:45:20.701Z,23.13
2018-01-20T10:47:48.102Z,22.57
2018-01-20T10:50:15.490Z,21.87
2018-01-20T10:52:42.894Z,23.07
2018-01-20T10:55:10.296Z,22.50
2018-01-20T10:57:37.704Z,22.80
2018-01-20T11:00:05.091Z,22.40
2018-01-20T11:02:32.499Z,23.73
2018-01-20T11:04:59.889Z,23.40
2018-01-20T11:07:27.291Z,24.13
2018-01-20T11:09:54.711Z,23.20
2018-01-20T11:12:22.129Z,22.00
2018-01-20T11:14:49.539Z,22.73
2018-01-20T11:17:16.929Z,23.17
2018-01-20T11:19:44.330Z,22.60
2018-01-20T11:22:11.726Z,24.03
2018-01-20T11:24:39.116Z,21.77
2018-01-20T11:27:06.511Z,24.00
2018-01-20T11:29:33.895Z,21.00
2018-01-20T11:32:01.299Z,21.90
2018-01-20T11:34:28.781Z,22.77
2018-01-20T11:36:56.169Z,21.73
2018-01-20T11:39:23.583Z,21.33
2018-01-20T11:41:50.968Z,22.27
2018-01-20T11:44:18.354Z,20.10
2018-01-20T11:46:45.748Z,20.13
2018-01-20T11:49:13.147Z,21.27
2018-01-20T11:51:40.555Z,20.27
2018-01-20T11:54:07.955Z,20.70
2018-01-20T11:56:35.351Z,21.43
2018-01-20T11:59:02.787Z,19.20
2018-01-20T12:01:30.178Z,18.77
2018-01-20T12:03:57.583Z,21.13
2018-01-20T12:06:25.030Z,18.40
2018-01-20T12:08:52.426Z,18.23
2018-01-20T12:11:19.823Z,18.33
2018-01-20T12:13:47.214Z,15.37
2018-01-20T12:16:14.618Z,16.10
2018-01-20T12:18:42.003Z,14.80
2018-01-20T12:21:09.391Z,15.20
2018-01-20T12:23:36.781Z,15.00
2018-01-20T12:26:04.186Z,13.13
2018-01-20T12:28:31.593Z,12.77
2018-01-20T12:30:59.008Z,12.40
2018-01-20T12:33:26.402Z,13.00
2018-01-20T12:35:53.790Z,12.23
2018-01-20T12:38:21.185Z,11.60
2018-01-20T12:40:48.574Z,10.87
2018-01-20T12:43:15.971Z,10.80
2018-01-20T12:45:43.357Z,10.00
2018-01-20T12:48:10.766Z,9.23
2018-01-20T12:50:38.170Z,10.63
2018-01-20T12:53:05.561Z,10.30
2018-01-20T12:55:32.998Z,9.07
2018-01-20T12:58:00.389Z,9.30
2018-01-20T13:00:27.775Z,9.00
2018-01-20T13:02:55.162Z,10.37
2018-01-20T13:05:22.563Z,9.70
2018-01-20T13:07:49.977Z,10.27
2018-01-20T13:10:17.390Z,9.20
2018-01-20T13:12:44.786Z,10.70
2018-01-20T13:15:12.178Z,10.70
2018-01-20T13:17:39.609Z,11.07
2018-01-20T13:20:06.991Z,11.20
2018-01-20T13:22:34.526Z,12.43
2018-01-20T13:25:01.982Z,12.10
2018-01-20T13:27:29.370Z,11.47
2018-01-20T13:29:56.764Z,11.83
2018-01-20T13:32:24.158Z,12.77
2018-01-20T13:34:51.606Z,12.70
2018-01-20T13:37:19.006Z,13.67
2018-01-20T13:39:46.401Z,14.87
2018-01-20T13:42:13.794Z,14.20
2018-01-20T13:44:41.260Z,14.90
2018-01-20T13:47:08.683Z,13.13
2018-01-20T13:49:36.086Z,15.10
2018-01-20T13:52:03.482Z,15.17
2018-01-20T13:54:30.879Z,15.00
2018-01-20T13:56:58.278Z,15.50
2018-01-20T13:59:25.691Z,15.87
2018-01-20T14:01:53.066Z,15.90
2018-01-20T14:04:20.488Z,14.43
2018-01-20T14:06:47.890Z,15.87
2018-01-20T14:09:15.347Z,15.70
2018-01-20T14:11:42.750Z,15.80
2018-01-20T14:14:10.154Z,14.40
2018-01-20T14:16:37.593Z,17.53
2018-01-20T14:19:05.382Z,13.50
2018-01-20T14:21:32.789Z,14.97
2018-01-20T14:24:00.175Z,16.23
2018-01-20T14:26:27.567Z,15.77
2018-01-20T14:28:54.962Z,15.40
2018-01-20T14:31:22.362Z,14.07
2018-01-20T14:33:49.754Z,14.37
2018-01-20T14:36:17.193Z,15.10
2018-01-20T14:38:44.587Z,14.83
2018-01-20T14:41:11.982Z,16.20
2018-01-20T14:43:39.378Z,14.47
2018-01-20T14:46:06.762Z,18.30
2018-01-20T14:48:34.271Z,15.90
2018-01-20T14:51:01.647Z,15.97
2018-01-20T14:53:29.075Z,13.90
2018-01-20T14:55:56.461Z,15.73
2018-01-20T14:58:23.859Z,13.97
2018-01-20T15:00:51.266Z,14.53
2018-01-20T15:03:18.649Z,14.07
2018-01-20T15:05:46.042Z,14.40
2018-01-20T15:08:13.445Z,14.30
2018-01-20T15:10:40.860Z,14.13
2018-01-20T15:13:08.254Z,12.57
2018-01-20T15:15:35.662Z,11.57
2018-01-20T15:18:03.052Z,13.40
2018-01-20T15:20:30.884Z,14.47
2018-01-20T15:22:58.359Z,14.17
2018-01-20T15:25:25.757Z,15.20
2018-01-20T15:27:53.194Z,13.40
2018-01-20T15:30:20.589Z,15.93
2018-01-20T15:32:47.986Z,16.17
2018-01-20T15:35:15.391Z,15.63
2018-01-20T15:37:42.782Z,16.33
2018-01-20T15:40:10.195Z,15.97
2018-01-20T15:42:37.593Z,16.50
2018-01-20T15:45:05.066Z,15.53
2018-01-20T15:47:32.463Z,16.47
2018-01-20T15:49:59.855Z,14.67
2018-01-20T15:52:27.240Z,16.03
2018-01-20T15:54:54.638Z,15.07
2018-01-20T15:57:22.045Z,14.60
2018-01-20T15:59:49.437Z,14.67
2018-01-20T16:02:16.816Z,15.27
2018-01-20T16:04:44.241Z,13.40
2018-01-20T16:07:11.650Z,15.57
2018-01-20T16:09:39.089Z,14.73
2018-01-20T16:12:06.475Z,15.80
2018-01-20T16:14:33.870Z,14.90
2018-01-20T16:17:01.262Z,15.23
2018-01-20T16:19:28.659Z,14.00
2018-01-20T16:21:56.087Z,19.00
2018-01-20T16:24:23.482Z,16.63
2018-01-20T16:26:50.881Z,15.77
2018-01-20T16:29:18.272Z,17.00
2018-01-20T16:31:45.663Z,16.27
2018-01-20T16:34:13.058Z,18.27
2018-01-20T16:36:40.465Z,17.73
2018-01-20T16:39:07.879Z,19.00
2018-01-20T16:41:35.318Z,17.97
2018-01-20T16:44:02.717Z,14.00
2018-01-20T16:46:30.107Z,15.97
2018-01-20T16:48:57.507Z,14.37
2018-01-20T16:51:24.895Z,16.43
2018-01-20T16:53:52.289Z,14.87
2018-01-20T16:56:19.703Z,14.30
2018-01-20T16:58:47.190Z,15.27
2018-01-20T17:01:14.578Z,16.23
2018-01-20T17:03:41.983Z,15.00
2018-01-20T17:06:09.373Z,19.30
2018-01-20T17:08:36.809Z,16.17
2018-01-20T17:11:04.179Z,15.97
2018-01-20T17:13:31.583Z,15.17
2018-01-20T17:15:58.990Z,17.17
2018-01-20T17:18:26.379Z,15.07
2018-01-20T17:20:53.774Z,14.90
2018-01-20T17:23:21.162Z,15.70
2018-01-20T17:25:48.567Z,14.63
2018-01-20T17:28:15.954Z,14.50
2018-01-20T17:30:43.361Z,15.67
2018-01-20T17:33:10.753Z,14.90
2018-01-20T17:35:38.151Z,15.27
2018-01-20T17:38:05.543Z,16.07
2018-01-20T17:40:32.943Z,16.20
2018-01-20T17:43:00.327Z,16.83
2018-01-20T17:45:27.731Z,16.50
2018-01-20T17:47:55.146Z,15.13
2018-01-20T17:50:22.531Z,16.70
2018-01-20T17:52:49.950Z,16.80
2018-01-20T17:55:17.376Z,16.50
2018-01-20T17:57:44.738Z,16.10
2018-01-20T18:00:12.147Z,15.47
2018-01-20T18:02:39.535Z,16.30
2018-01-20T18:05:07.178Z,17.03
2018-01-20T18:07:34.654Z,17.60
2018-01-20T18:10:02.054Z,19.70
2018-01-20T18:12:29.454Z,22.17
2018-01-20T18:14:56.841Z,20.00
2018-01-20T18:17:24.243Z,18.57
2018-01-20T18:19:51.659Z,17.27
2018-01-20T18:22:19.043Z,23.03
2018-01-20T18:24:46.524Z,18.57
2018-01-20T18:27:13.915Z,15.93
2018-01-20T18:29:41.339Z,13.57
2018-01-20T18:32:08.750Z,14.57
2018-01-20T18:34:36.145Z,15.00
2018-01-20T18:37:03.560Z,15.40
2018-01-20T18:39:30.976Z,13.50
2018-01-20T18:41:58.506Z,11.23
2018-01-20T18:44:25.902Z,12.77
2018-01-20T18:46:53.321Z,13.10
2018-01-20T18:49:20.723Z,12.47
2018-01-20T18:51:48.114Z,14.13
2018-01-20T18:54:15.510Z,14.87
2018-01-20T18:56:42.963Z,14.07
2018-01-20T18:59:10.409Z,15.07
2018-01-20T19:01:37.814Z,15.20
2018-01-20T19:04:05.207Z,15.17
2018-01-20T19:06:32.607Z,13.40
2018-01-20T19:09:00.007Z,13.60
2018-01-20T19:11:27.428Z,13.20
2018-01-20T19:13:54.838Z,12.67
2018-01-20T19:16:22.230Z,15.63
2018-01-20T19:18:49.822Z,15.90
2018-01-20T19:21:17.238Z,17.90
2018-01-20T19:23:44.737Z,16.83
2018-01-20T19:26:12.150Z,18.10
2018-01-20T19:28:39.527Z,17.93
2018-01-20T19:31:06.946Z,16.57
2018-01-20T19:33:34.346Z,14.10
2018-01-20T19:36:01.778Z,15.67
2018-01-20T19:38:29.180Z,15.83
2018-01-20T19:40:56.575Z,15.10
2018-01-20T19:43:23.971Z,14.83
2018-01-20T19:45:51.390Z,16.57
2018-01-20T19:48:18.778Z,15.53
2018-01-20T19:50:46.186Z,15.80
2018-01-20T19:53:13.574Z,15.40
2018-01-20T19:55:40.977Z,15.73
2018-01-20T19:58:08.373Z,16.77
2018-01-20T20:00:35.771Z,16.67
2018-01-20T20:03:03.179Z,17.57
2018-01-20T20:05:30.625Z,18.60
2018-01-20T20:07:58.026Z,16.97
2018-01-20T20:10:25.418Z,18.10
2018-01-20T20:12:52.806Z,16.00
2018-01-20T20:15:20.313Z,14.00
2018-01-20T20:17:47.746Z,14.63
2018-01-20T20:20:15.154Z,13.90
2018-01-20T20:22:42.545Z,13.40
2018-01-20T20:25:09.938Z,14.43
2018-01-20T20:27:37.323Z,15.00
2018-01-20T20:30:04.728Z,14.57
2018-01-20T20:32:32.119Z,13.97
2018-01-20T20:34:59.511Z,14.93
2018-01-20T20:37:26.902Z,14.20
2018-01-20T20:39:54.339Z,14.67
2018-01-20T20:42:21.740Z,14.57
2018-01-20T20:44:49.168Z,14.53
2018-01-20T20:47:16.567Z,13.87
2018-01-20T20:49:43.950Z,14.73
2018-01-20T20:52:11.350Z,13.30
2018-01-20T20:54:38.738Z,12.93
2018-01-20T20:57:06.153Z,14.00
2018-01-20T20:59:33.550Z,14.77
2018-01-20T21:02:01.003Z,14.90
2018-01-20T21:04:28.499Z,14.20
2018-01-20T21:06:55.917Z,13.17
2018-01-20T21:09:23.314Z,14.30
2018-01-20T21:11:50.753Z,13.60
2018-01-20T21:14:18.162Z,15.17
2018-01-20T21:16:45.558Z,15.73
2018-01-20T21:19:12.948Z,14.70
2018-01-20T21:21:40.342Z,14.80
2018-01-20T21:24:07.736Z,14.00
2018-01-20T21:26:35.126Z,15.20
2018-01-20T21:29:02.543Z,13.80
2018-01-20T21:31:29.937Z,14.30
2018-01-20T21:33:57.334Z,13.73
2018-01-20T21:36:24.732Z,15.03
2018-01-20T21:38:52.115Z,14.10
2018-01-20T21:41:19.518Z,14.30
2018-01-20T21:43:46.990Z,14.07
2018-01-20T21:46:14.386Z,14.90
2018-01-20T21:48:41.783Z,15.37
2018-01-20T21:51:09.184Z,14.37
2018-01-20T21:53:36.583Z,14.87
2018-01-20T21:56:03.984Z,16.33
2018-01-20T21:58:31.399Z,14.17
2018-01-20T22:00:58.799Z,13.53
2018-01-20T22:03:26.225Z,14.30
2018-01-20T22:05:53.726Z,15.77
2018-01-20T22:08:21.126Z,14.50
2018-01-20T22:10:48.526Z,15.60
2018-01-20T22:13:15.936Z,14.20
2018-01-20T22:15:43.419Z,15.20
2018-01-20T22:18:10.820Z,16.80
2018-01-20T22:20:38.235Z,16.00
2018-01-20T22:23:05.614Z,15.90
2018-01-20T22:25:33.022Z,16.47
2018-01-20T22:28:00.428Z,15.43
2018-01-20T22:30:27.835Z,16.00
2018-01-20T22:32:55.226Z,14.40
2018-01-20T22:35:22.628Z,14.60
2018-01-20T22:37:50.066Z,14.10
2018-01-20T22:40:17.450Z,14.53
2018-01-20T22:42:44.876Z,15.83
2018-01-20T22:45:12.287Z,14.37
2018-01-20T22:47:39.673Z,14.40
2018-01-20T22:50:07.067Z,14.60
2018-01-20T22:52:34.480Z,14.43
2018-01-20T22:55:01.907Z,16.00
2018-01-20T22:57:29.299Z,15.13
2018-01-20T22:59:56.702Z,15.10
2018-01-20T23:02:24.133Z,14.95
2018-01-20T23:04:51.531Z,14.43
2018-01-20T23:07:18.965Z,15.80
2018-01-20T23:09:46.338Z,15.47
2018-01-20T23:12:13.784Z,14.97
2018-01-20T23:14:41.251Z,15.80
2018-01-20T23:17:08.677Z,17.03
2018-01-20T23:19:36.064Z,16.10
2018-01-20T23:22:03.462Z,17.63
2018-01-20T23:24:30.875Z,15.93
2018-01-20T23:26:58.257Z,15.37
2018-01-20T23:29:25.657Z,16.17
2018-01-20T23:31:53.069Z,14.33
2018-01-20T23:34:20.454Z,14.43
2018-01-20T23:36:47.846Z,14.60
2018-01-20T23:39:15.231Z,16.00
2018-01-20T23:41:42.630Z,15.70
2018-01-20T23:44:10.018Z,16.10
2018-01-20T23:46:37.448Z,16.43
2018-01-20T23:49:04.839Z,16.10
2018-01-20T23:51:32.222Z,16.53
2018-01-20T23:53:59.614Z,16.80
2018-01-20T23:56:27.015Z,15.17
2018-01-20T23:58:54.403Z,14.37
